Time;durP1;ratioP1;P1;durP2;ratioP2;P2;SDS_P1;SDS_P2;PMS_P1;PMS_P2;Temp;Humidity;BMP_temperature;BMP_pressure;BME280_temperature;BME280_humidity;BME280_pressure;Samples;Min_cycle;Max_cycle;Signal;HPM_P1;HPM_P2
2021/07/04 00:00:14;;;;;;;1.10;0.60;;;;;;;;;;3586286;40;20355;-66
2021/07/04 00:02:40;;;;;;;1.60;0.70;;;;;;;;;;3586704;40;20365;-66
2021/07/04 00:05:08;;;;;;;0.80;0.60;;;;;;;;;;3587080;39;20398;-66
2021/07/04 00:07:36;;;;;;;1.50;0.75;;;;;;;;;;3578545;40;20356;-67
2021/07/04 00:10:02;;;;;;;1.50;0.70;;;;;;;;;;3577891;40;20378;-66
2021/07/04 00:12:28;;;;;;;1.70;0.80;;;;;;;;;;3577312;40;20372;-66
2021/07/04 00:14:54;;;;;;;0.68;0.60;;;;;;;;;;3576239;40;20445;-66
2021/07/04 00:17:20;;;;;;;1.42;0.70;;;;;;;;;;3579081;40;20501;-66
2021/07/04 00:19:46;;;;;;;1.20;0.77;;;;;;;;;;3573866;40;20397;-66
2021/07/04 00:22:12;;;;;;;1.00;0.70;;;;;;;;;;3574751;40;20386;-66
2021/07/04 00:24:40;;;;;;;1.00;0.70;;;;;;;;;;3579689;40;20462;-66
2021/07/04 00:27:06;;;;;;;1.67;0.65;;;;;;;;;;3577429;40;20388;-66
2021/07/04 00:29:32;;;;;;;1.25;0.80;;;;;;;;;;3580083;40;20368;-66
2021/07/04 00:31:58;;;;;;;1.55;0.95;;;;;;;;;;3572005;40;20495;-66
2021/07/04 00:34:25;;;;;;;1.85;0.70;;;;;;;;;;3577418;40;20368;-66
2021/07/04 00:36:51;;;;;;;1.10;0.80;;;;;;;;;;3577815;40;20384;-66
2021/07/04 00:39:17;;;;;;;1.45;0.68;;;;;;;;;;3577625;40;20416;-67
2021/07/04 00:41:44;;;;;;;0.85;0.65;;;;;;;;;;3577839;40;20376;-67
2021/07/04 00:44:11;;;;;;;1.30;0.70;;;;;;;;;;3577855;40;20383;-66
2021/07/04 00:46:37;;;;;;;0.90;0.50;;;;;;;;;;3568236;40;20379;-66
2021/07/04 00:49:03;;;;;;;0.80;0.73;;;;;;;;;;3577406;40;20416;-66
2021/07/04 00:51:29;;;;;;;1.83;0.60;;;;;;;;;;3577413;40;20701;-67
2021/07/04 00:53:56;;;;;;;0.77;0.50;;;;;;;;;;3577477;40;20685;-67
2021/07/04 00:56:22;;;;;;;0.90;0.60;;;;;;;;;;3571152;40;20390;-66
2021/07/04 00:58:49;;;;;;;0.93;0.60;;;;;;;;;;3568704;40;20411;-66
2021/07/04 01:01:15;;;;;;;0.90;0.60;;;;;;;;;;3577319;40;20435;-67
2021/07/04 01:03:42;;;;;;;1.02;0.68;;;;;;;;;;3577416;40;20396;-66
2021/07/04 01:06:08;;;;;;;0.60;0.60;;;;;;;;;;3584510;40;20513;-67
2021/07/04 01:08:34;;;;;;;2.80;0.70;;;;;;;;;;3578188;40;20489;-66
2021/07/04 01:11:02;;;;;;;1.23;0.60;;;;;;;;;;3577263;40;20376;-68
2021/07/04 01:13:29;;;;;;;1.10;0.60;;;;;;;;;;3579334;40;20419;-66
2021/07/04 01:15:57;;;;;;;1.88;0.68;;;;;;;;;;3576188;40;20391;-66
2021/07/04 01:18:23;;;;;;;2.08;0.60;;;;;;;;;;3577825;40;20384;-67
2021/07/04 01:20:51;;;;;;;1.10;0.60;;;;;;;;;;3577158;40;20747;-66
2021/07/04 01:23:19;;;;;;;1.65;0.70;;;;;;;;;;3574654;40;20383;-67
2021/07/04 01:25:47;;;;;;;1.83;0.80;;;;;;;;;;3577713;40;20384;-67
2021/07/04 01:28:13;;;;;;;0.70;0.50;;;;;;;;;;3563816;40;20653;-67
2021/07/04 01:30:40;;;;;;;0.87;0.50;;;;;;;;;;3580427;40;20375;-67
2021/07/04 01:33:06;;;;;;;1.60;0.60;;;;;;;;;;3568617;40;20419;-66
2021/07/04 01:35:33;;;;;;;1.30;0.60;;;;;;;;;;3570545;40;20408;-66
2021/07/04 01:37:59;;;;;;;1.23;0.57;;;;;;;;;;3577311;40;20514;-67
2021/07/04 01:40:27;;;;;;;1.35;0.60;;;;;;;;;;3574513;40;20424;-68
2021/07/04 01:42:53;;;;;;;8.88;1.08;;;;;;;;;;3571925;40;20406;-67
2021/07/04 01:45:20;;;;;;;1.20;0.60;;;;;;;;;;3580169;40;20372;-66
2021/07/04 01:47:48;;;;;;;1.10;0.60;;;;;;;;;;3577167;40;20412;-66
2021/07/04 01:50:16;;;;;;;0.80;0.60;;;;;;;;;;3577396;40;20375;-66
2021/07/04 01:52:42;;;;;;;1.50;0.60;;;;;;;;;;3568591;40;20420;-66
2021/07/04 01:55:10;;;;;;;0.82;0.60;;;;;;;;;;3577427;40;20378;-66
2021/07/04 01:57:38;;;;;;;0.50;0.50;;;;;;;;;;3577015;40;20364;-66
2021/07/04 02:00:07;;;;;;;0.70;0.40;;;;;;;;;;3567576;40;20420;-66
2021/07/04 02:02:33;;;;;;;1.15;0.70;;;;;;;;;;3577550;40;20371;-66
2021/07/04 02:05:00;;;;;;;1.30;0.50;;;;;;;;;;3572194;39;20484;-66
2021/07/04 02:07:26;;;;;;;0.70;0.52;;;;;;;;;;3590218;40;20436;-67
2021/07/04 02:09:52;;;;;;;0.73;0.50;;;;;;;;;;3587145;40;20429;-66
2021/07/04 02:12:20;;;;;;;0.98;0.50;;;;;;;;;;3588969;40;20469;-66
2021/07/04 02:14:47;;;;;;;0.90;0.50;;;;;;;;;;3587259;40;20794;-67
2021/07/04 02:17:13;;;;;;;0.65;0.40;;;;;;;;;;3585882;40;20422;-68
2021/07/04 02:19:40;;;;;;;1.10;0.50;;;;;;;;;;3587156;40;20448;-68
2021/07/04 02:22:07;;;;;;;1.30;0.52;;;;;;;;;;3567607;40;20404;-69
2021/07/04 02:24:33;;;;;;;0.90;0.50;;;;;;;;;;3586689;40;20844;-68
2021/07/04 02:27:00;;;;;;;1.20;0.70;;;;;;;;;;3587026;40;20448;-67
2021/07/04 02:29:27;;;;;;;1.07;0.60;;;;;;;;;;3587007;40;20867;-67
2021/07/04 02:31:54;;;;;;;0.60;0.50;;;;;;;;;;3584934;40;20382;-67
2021/07/04 02:34:20;;;;;;;1.73;0.50;;;;;;;;;;3582265;40;20444;-67
2021/07/04 02:36:47;;;;;;;0.60;0.50;;;;;;;;;;3586936;40;20390;-67
2021/07/04 02:39:14;;;;;;;0.80;0.60;;;;;;;;;;3586792;40;20453;-67
2021/07/04 02:41:40;;;;;;;0.90;0.50;;;;;;;;;;3587103;40;20363;-67
2021/07/04 02:44:06;;;;;;;1.88;0.70;;;;;;;;;;3587094;40;20369;-67
2021/07/04 02:46:32;;;;;;;1.08;0.57;;;;;;;;;;3584085;40;20373;-67
2021/07/04 02:49:00;;;;;;;1.30;0.67;;;;;;;;;;3582567;40;20834;-67
2021/07/04 02:51:26;;;;;;;0.70;0.60;;;;;;;;;;3593114;39;20438;-67
2021/07/04 02:53:53;;;;;;;1.27;0.55;;;;;;;;;;3587527;40;20823;-67
2021/07/04 02:56:19;;;;;;;1.45;0.70;;;;;;;;;;3587649;40;20460;-67
2021/07/04 02:58:45;;;;;;;1.10;0.57;;;;;;;;;;3587171;40;20386;-66
2021/07/04 03:01:11;;;;;;;1.13;0.70;;;;;;;;;;3587057;40;20460;-72
2021/07/04 03:03:37;;;;;;;0.90;0.60;;;;;;;;;;3586851;40;20767;-71
2021/07/04 03:06:05;;;;;;;0.82;0.57;;;;;;;;;;3584407;40;20494;-72
2021/07/04 03:08:31;;;;;;;1.35;0.60;;;;;;;;;;3586958;40;20460;-72
2021/07/04 03:10:59;;;;;;;1.88;0.70;;;;;;;;;;3567990;40;20827;-71
2021/07/04 03:13:25;;;;;;;3.05;0.70;;;;;;;;;;3583978;40;20362;-71
2021/07/04 03:15:51;;;;;;;1.50;0.73;;;;;;;;;;3589629;40;20376;-72
2021/07/04 03:18:17;;;;;;;1.20;0.60;;;;;;;;;;3589549;40;20372;-72
2021/07/04 03:20:44;;;;;;;1.20;0.50;;;;;;;;;;3585319;40;20364;-73
2021/07/04 03:23:12;;;;;;;2.42;0.70;;;;;;;;;;3590729;40;20365;-72
2021/07/04 03:25:38;;;;;;;0.63;0.52;;;;;;;;;;3585120;40;20692;-72
2021/07/04 03:28:04;;;;;;;0.80;0.60;;;;;;;;;;3595153;40;20735;-72
2021/07/04 03:30:31;;;;;;;0.97;0.50;;;;;;;;;;3586523;40;20378;-72
2021/07/04 03:32:57;;;;;;;1.10;0.60;;;;;;;;;;3586733;40;20394;-71
2021/07/04 03:35:23;;;;;;;1.25;0.60;;;;;;;;;;3586878;40;20647;-71
2021/07/04 03:37:49;;;;;;;0.70;0.60;;;;;;;;;;3572699;40;20399;-72
2021/07/04 03:40:18;;;;;;;0.70;0.50;;;;;;;;;;3585142;40;20767;-72
2021/07/04 03:42:45;;;;;;;1.25;0.73;;;;;;;;;;3586635;40;20643;-71
2021/07/04 03:45:11;;;;;;;1.17;0.63;;;;;;;;;;3575367;40;20765;-72
2021/07/04 03:47:38;;;;;;;1.55;0.50;;;;;;;;;;3582398;40;20397;-72
2021/07/04 03:50:05;;;;;;;0.98;0.60;;;;;;;;;;3586505;40;20402;-72
2021/07/04 03:52:31;;;;;;;2.17;0.60;;;;;;;;;;3586562;40;20409;-72
2021/07/04 03:54:57;;;;;;;0.70;0.50;;;;;;;;;;3575513;40;20634;-72
2021/07/04 03:57:26;;;;;;;0.67;0.50;;;;;;;;;;3583347;40;20388;-71
2021/07/04 03:59:53;;;;;;;0.85;0.52;;;;;;;;;;3586700;40;20445;-74
2021/07/04 04:02:19;;;;;;;1.55;0.60;;;;;;;;;;3584843;40;20759;-74
2021/07/04 04:04:45;;;;;;;1.40;0.60;;;;;;;;;;3586690;39;20384;-72
2021/07/04 04:07:11;;;;;;;0.70;0.50;;;;;;;;;;3578858;40;20424;-72
2021/07/04 04:09:38;;;;;;;1.30;0.70;;;;;;;;;;3578419;40;20462;-72
2021/07/04 04:12:04;;;;;;;0.85;0.50;;;;;;;;;;3588078;40;20398;-74
2021/07/04 04:14:32;;;;;;;1.70;0.50;;;;;;;;;;3588048;40;20680;-74
2021/07/04 04:16:58;;;;;;;1.30;0.50;;;;;;;;;;3578262;40;20402;-74
2021/07/04 04:19:24;;;;;;;1.40;0.50;;;;;;;;;;3578420;40;20402;-74
2021/07/04 04:21:50;;;;;;;0.90;0.50;;;;;;;;;;3584413;40;20397;-73
2021/07/04 04:24:17;;;;;;;1.65;0.77;;;;;;;;;;3587995;40;20365;-74
2021/07/04 04:26:43;;;;;;;1.20;0.52;;;;;;;;;;3587946;40;20370;-73
2021/07/04 04:29:09;;;;;;;1.20;0.60;;;;;;;;;;3588071;40;20495;-71
2021/07/04 04:31:37;;;;;;;1.37;0.70;;;;;;;;;;3582979;40;20836;-71
2021/07/04 04:34:03;;;;;;;0.82;0.52;;;;;;;;;;3578232;40;20487;-72
2021/07/04 04:36:29;;;;;;;0.75;0.50;;;;;;;;;;3578440;40;20406;-72
2021/07/04 04:38:55;;;;;;;1.70;0.50;;;;;;;;;;3569586;40;20676;-71
2021/07/04 04:41:21;;;;;;;1.10;0.53;;;;;;;;;;3587213;40;20351;-71
2021/07/04 04:43:48;;;;;;;0.98;0.57;;;;;;;;;;3588010;40;20366;-71
2021/07/04 04:46:14;;;;;;;1.00;0.50;;;;;;;;;;3586833;40;20500;-72
2021/07/04 04:48:43;;;;;;;0.98;0.60;;;;;;;;;;3576610;40;20400;-71
2021/07/04 04:51:09;;;;;;;0.82;0.60;;;;;;;;;;3586092;40;20771;-71
2021/07/04 04:53:35;;;;;;;0.77;0.60;;;;;;;;;;3587581;40;20467;-72
2021/07/04 04:56:02;;;;;;;1.37;0.57;;;;;;;;;;3587935;40;20394;-72
2021/07/04 04:58:28;;;;;;;1.30;0.60;;;;;;;;;;3576408;40;20407;-71
2021/07/04 05:00:54;;;;;;;1.10;0.80;;;;;;;;;;3578283;40;20382;-72
2021/07/04 05:03:20;;;;;;;1.85;0.85;;;;;;;;;;3587435;40;20647;-71
2021/07/04 05:05:48;;;;;;;0.90;0.63;;;;;;;;;;3577973;40;20422;-71
2021/07/04 05:08:15;;;;;;;1.20;0.70;;;;;;;;;;3587499;40;20452;-71
2021/07/04 05:10:42;;;;;;;1.42;0.63;;;;;;;;;;3578558;40;20500;-71
2021/07/04 05:13:08;;;;;;;0.60;0.55;;;;;;;;;;3587538;40;20732;-72
2021/07/04 05:15:34;;;;;;;1.42;0.70;;;;;;;;;;3587396;40;20390;-71
2021/07/04 05:18:06;;;;;;;1.10;0.60;;;;;;;;;;3587681;40;20717;-71
2021/07/04 05:20:32;;;;;;;0.80;0.60;;;;;;;;;;3587410;40;20767;-71
2021/07/04 05:23:00;;;;;;;1.20;0.50;;;;;;;;;;3578008;40;20390;-71
2021/07/04 05:25:26;;;;;;;1.03;0.63;;;;;;;;;;3587386;40;20527;-71
2021/07/04 05:27:52;;;;;;;1.57;0.73;;;;;;;;;;3587526;40;20647;-71
2021/07/04 05:30:18;;;;;;;1.20;0.60;;;;;;;;;;3587527;40;20647;-71
2021/07/04 05:32:45;;;;;;;1.80;0.77;;;;;;;;;;3584224;40;20782;-71
2021/07/04 05:35:11;;;;;;;1.25;0.77;;;;;;;;;;3587305;40;20639;-71
2021/07/04 05:37:37;;;;;;;0.98;0.75;;;;;;;;;;3587232;40;20374;-72
2021/07/04 05:40:12;;;;;;;0.90;0.60;;;;;;;;;;3587131;40;20717;-71
2021/07/04 05:42:38;;;;;;;1.60;0.70;;;;;;;;;;3587212;40;20367;-71
2021/07/04 05:45:07;;;;;;;1.30;0.65;;;;;;;;;;3585003;40;20377;-71
2021/07/04 05:47:33;;;;;;;0.75;0.60;;;;;;;;;;3587068;40;20374;-71
2021/07/04 05:49:59;;;;;;;1.40;0.55;;;;;;;;;;3587399;40;20623;-71
2021/07/04 05:52:25;;;;;;;0.88;0.60;;;;;;;;;;3580476;40;20914;-72
2021/07/04 05:54:51;;;;;;;1.30;0.80;;;;;;;;;;3587407;40;20378;-72
2021/07/04 05:57:19;;;;;;;0.68;0.60;;;;;;;;;;3587148;40;20752;-71
2021/07/04 05:59:45;;;;;;;1.10;0.77;;;;;;;;;;3575633;40;20394;-72
2021/07/04 06:02:11;;;;;;;1.70;0.63;;;;;;;;;;3580360;40;20382;-72
2021/07/04 06:04:37;;;;;;;1.47;0.77;;;;;;;;;;3584932;40;20414;-71
2021/07/04 06:07:04;;;;;;;1.13;0.70;;;;;;;;;;3586854;40;20786;-71
2021/07/04 06:09:30;;;;;;;1.85;0.90;;;;;;;;;;3587003;40;20416;-74
2021/07/04 06:11:56;;;;;;;1.25;0.80;;;;;;;;;;3587105;40;20488;-72
2021/07/04 06:14:24;;;;;;;1.60;0.80;;;;;;;;;;3587216;40;20387;-71
2021/07/04 06:16:50;;;;;;;1.05;0.85;;;;;;;;;;3587129;40;20366;-72
2021/07/04 06:19:16;;;;;;;1.20;0.70;;;;;;;;;;3587223;40;20366;-71
2021/07/04 06:21:42;;;;;;;1.25;0.75;;;;;;;;;;3586969;40;20378;-72
2021/07/04 06:24:08;;;;;;;1.13;0.77;;;;;;;;;;3586893;40;20651;-72
2021/07/04 06:26:35;;;;;;;1.83;0.80;;;;;;;;;;3579461;40;20397;-72
2021/07/04 06:29:01;;;;;;;1.27;0.90;;;;;;;;;;3586896;40;20373;-73
2021/07/04 06:31:28;;;;;;;1.10;0.70;;;;;;;;;;3586965;40;20457;-72
2021/07/04 06:33:57;;;;;;;0.67;0.60;;;;;;;;;;3586850;40;20377;-71
2021/07/04 06:36:23;;;;;;;1.73;0.70;;;;;;;;;;3586802;40;20739;-71
2021/07/04 06:38:49;;;;;;;1.17;0.85;;;;;;;;;;3586860;40;20367;-71
2021/07/04 06:41:15;;;;;;;3.63;2.05;;;;;;;;;;3577705;40;20764;-72
2021/07/04 06:43:42;;;;;;;4.10;3.28;;;;;;;;;;3586860;40;20402;-71
2021/07/04 06:46:08;;;;;;;5.90;3.95;;;;;;;;;;3577175;40;20516;-71
2021/07/04 06:48:37;;;;;;;6.80;4.95;;;;;;;;;;3576409;40;20392;-71
2021/07/04 06:51:07;;;;;;;10.10;6.30;;;;;;;;;;3577333;40;20403;-71
2021/07/04 06:53:33;;;;;;;9.90;5.95;;;;;;;;;;3586469;40;20499;-71
2021/07/04 06:55:59;;;;;;;5.97;3.75;;;;;;;;;;3577203;40;20776;-72
2021/07/04 06:58:25;;;;;;;5.03;3.67;;;;;;;;;;3586709;40;20374;-71
2021/07/04 07:00:52;;;;;;;2.50;1.75;;;;;;;;;;3586900;40;20460;-71
2021/07/04 07:03:18;;;;;;;2.30;1.77;;;;;;;;;;3586919;40;20384;-71
2021/07/04 07:05:45;;;;;;;4.53;3.20;;;;;;;;;;3577317;40;20413;-70
2021/07/04 07:08:12;;;;;;;5.10;3.10;;;;;;;;;;3586863;40;20373;-71
2021/07/04 07:10:38;;;;;;;5.75;3.78;;;;;;;;;;3584145;40;20517;-71
2021/07/04 07:13:04;;;;;;;6.80;3.92;;;;;;;;;;3577241;40;20409;-71
2021/07/04 07:15:30;;;;;;;5.07;3.08;;;;;;;;;;3586566;40;20385;-71
2021/07/04 07:17:57;;;;;;;7.72;5.03;;;;;;;;;;3586486;40;20362;-71
2021/07/04 07:20:24;;;;;;;11.27;6.72;;;;;;;;;;3586468;40;20416;-71
2021/07/04 07:22:52;;;;;;;13.40;8.20;;;;;;;;;;3576820;40;20483;-71
2021/07/04 07:25:18;;;;;;;9.20;5.40;;;;;;;;;;3586593;40;20796;-71
2021/07/04 07:27:44;;;;;;;5.70;3.87;;;;;;;;;;3586463;40;20410;-72
2021/07/04 07:30:11;;;;;;;3.80;1.98;;;;;;;;;;3586492;40;20406;-71
2021/07/04 07:32:38;;;;;;;2.63;1.80;;;;;;;;;;3581614;40;20386;-71
2021/07/04 07:35:04;;;;;;;2.15;1.60;;;;;;;;;;3586381;40;20454;-72
2021/07/04 07:37:30;;;;;;;2.38;1.40;;;;;;;;;;3585714;40;20362;-72
2021/07/04 07:39:58;;;;;;;1.33;1.08;;;;;;;;;;3579718;40;20435;-71
2021/07/04 07:42:24;;;;;;;1.92;1.10;;;;;;;;;;3579025;40;20412;-71
2021/07/04 07:44:50;;;;;;;1.27;0.90;;;;;;;;;;3586569;40;20374;-72
2021/07/04 07:47:17;;;;;;;3.00;1.13;;;;;;;;;;3576489;40;20767;-71
2021/07/04 07:49:43;;;;;;;1.60;0.90;;;;;;;;;;3578158;40;20559;-72
2021/07/04 07:52:09;;;;;;;1.70;1.37;;;;;;;;;;3584906;40;20444;-71
2021/07/04 07:54:36;;;;;;;3.17;1.73;;;;;;;;;;3585946;40;20366;-71
2021/07/04 07:57:04;;;;;;;3.30;1.55;;;;;;;;;;3585990;40;20456;-72
2021/07/04 07:59:30;;;;;;;2.45;1.60;;;;;;;;;;3584516;40;20759;-71
2021/07/04 08:01:57;;;;;;;4.20;1.90;;;;;;;;;;3586464;40;20747;-71
2021/07/04 08:04:23;;;;;;;2.65;1.45;;;;;;;;;;3586236;40;20402;-71
2021/07/04 08:06:49;;;;;;;2.15;1.35;;;;;;;;;;3586473;40;20508;-72
2021/07/04 08:09:15;;;;;;;3.13;1.50;;;;;;;;;;3586156;40;20377;-76
2021/07/04 08:11:41;;;;;;;3.30;1.80;;;;;;;;;;3586027;40;20378;-72
2021/07/04 08:14:09;;;;;;;4.90;2.70;;;;;;;;;;3586244;40;20379;-71
2021/07/04 08:16:35;;;;;;;6.45;3.53;;;;;;;;;;3585686;40;20386;-71
2021/07/04 08:19:02;;;;;;;6.53;3.40;;;;;;;;;;3585801;40;20744;-71
2021/07/04 08:21:28;;;;;;;5.03;3.10;;;;;;;;;;3585775;40;20382;-72
2021/07/04 08:23:55;;;;;;;5.63;3.15;;;;;;;;;;3585745;40;20439;-71
2021/07/04 08:26:21;;;;;;;4.70;2.50;;;;;;;;;;3583581;40;20404;-71
2021/07/04 08:28:47;;;;;;;5.97;2.60;;;;;;;;;;3586582;40;20760;-73
2021/07/04 08:31:15;;;;;;;3.95;1.95;;;;;;;;;;3585892;40;20374;-72
2021/07/04 08:33:41;;;;;;;4.75;2.30;;;;;;;;;;3585267;40;20401;-71
2021/07/04 08:36:07;;;;;;;3.05;1.63;;;;;;;;;;3585598;40;20370;-72
2021/07/04 08:38:33;;;;;;;2.20;1.50;;;;;;;;;;3583269;40;20778;-71
2021/07/04 08:41:00;;;;;;;2.75;1.38;;;;;;;;;;3585574;40;20398;-71
2021/07/04 08:43:27;;;;;;;3.50;1.80;;;;;;;;;;3585559;40;20386;-71
2021/07/04 08:45:53;;;;;;;2.30;1.40;;;;;;;;;;3585417;40;20756;-71
2021/07/04 08:48:21;;;;;;;2.38;1.20;;;;;;;;;;3585562;40;20670;-72
2021/07/04 08:50:47;;;;;;;2.00;1.10;;;;;;;;;;3586560;40;20457;-73
2021/07/04 08:53:13;;;;;;;2.00;1.20;;;;;;;;;;3586401;40;20504;-72
2021/07/04 08:55:42;;;;;;;1.42;1.10;;;;;;;;;;3581096;40;20471;-71
2021/07/04 08:58:08;;;;;;;2.95;1.30;;;;;;;;;;3587032;40;20366;-72
2021/07/04 09:00:34;;;;;;;2.22;1.48;;;;;;;;;;3587375;40;20386;-71
2021/07/04 09:03:00;;;;;;;2.80;1.65;;;;;;;;;;3587389;40;20765;-71
2021/07/04 09:05:42;;;;;;;2.50;1.08;;;;;;;;;;3587219;40;20402;-73
2021/07/04 09:08:17;;;;;;;1.95;1.38;;;;;;;;;;3587016;40;20394;-72
2021/07/04 09:10:43;;;;;;;1.75;0.90;;;;;;;;;;3581266;40;20390;-72
2021/07/04 09:13:23;;;;;;;1.33;1.10;;;;;;;;;;3586829;40;20394;-72
2021/07/04 09:16:02;;;;;;;2.38;1.23;;;;;;;;;;3587030;40;20407;-72
2021/07/04 09:18:28;;;;;;;2.08;1.83;;;;;;;;;;3586403;40;20826;-73
2021/07/04 09:20:56;;;;;;;2.58;1.80;;;;;;;;;;3585721;40;20381;-72
2021/07/04 09:23:32;;;;;;;3.10;1.65;;;;;;;;;;3585778;40;20394;-72
2021/07/04 09:25:58;;;;;;;1.73;1.10;;;;;;;;;;3582132;40;20381;-73
2021/07/04 09:28:24;;;;;;;2.25;1.10;;;;;;;;;;3587294;40;20691;-72
2021/07/04 09:30:53;;;;;;;3.17;1.20;;;;;;;;;;3587412;40;20652;-73
2021/07/04 09:33:20;;;;;;;1.97;1.07;;;;;;;;;;3587130;40;20429;-72
2021/07/04 09:35:52;;;;;;;1.27;0.80;;;;;;;;;;3587095;40;20378;-72
2021/07/04 09:38:19;;;;;;;3.35;0.90;;;;;;;;;;3587953;40;20390;-73
2021/07/04 09:40:47;;;;;;;1.17;0.95;;;;;;;;;;3587788;40;20386;-73
2021/07/04 09:43:18;;;;;;;1.92;1.05;;;;;;;;;;3589590;40;20841;-75
2021/07/04 09:45:46;;;;;;;2.00;1.10;;;;;;;;;;3588569;40;20374;-70
2021/07/04 09:48:13;;;;;;;4.00;0.87;;;;;;;;;;3588146;40;20426;-70
2021/07/04 09:50:40;;;;;;;1.67;0.87;;;;;;;;;;3592509;40;20406;-71
2021/07/04 09:53:07;;;;;;;1.77;0.80;;;;;;;;;;3587210;40;20442;-71
2021/07/04 09:55:35;;;;;;;2.00;0.75;;;;;;;;;;3586555;40;20382;-71
2021/07/04 09:58:02;;;;;;;2.97;0.83;;;;;;;;;;3586649;40;20425;-70
2021/07/04 10:00:29;;;;;;;0.70;0.70;;;;;;;;;;3585225;40;20430;-70
2021/07/04 10:03:05;;;;;;;1.50;0.80;;;;;;;;;;3586350;40;20782;-70
2021/07/04 10:05:32;;;;;;;1.30;0.80;;;;;;;;;;3582511;40;20422;-70
2021/07/04 10:07:58;;;;;;;1.33;0.85;;;;;;;;;;3586110;40;20367;-70
2021/07/04 10:10:25;;;;;;;1.40;1.00;;;;;;;;;;3579708;40;20389;-71
2021/07/04 10:12:54;;;;;;;1.40;0.80;;;;;;;;;;3578482;40;20417;-71
2021/07/04 10:15:20;;;;;;;1.20;0.90;;;;;;;;;;3585004;40;20772;-70
2021/07/04 10:17:47;;;;;;;1.40;0.75;;;;;;;;;;3582347;40;20398;-70
2021/07/04 10:20:13;;;;;;;1.45;1.00;;;;;;;;;;3585525;40;20723;-70
2021/07/04 10:22:40;;;;;;;1.17;0.80;;;;;;;;;;3567828;40;20413;-71
2021/07/04 10:25:08;;;;;;;2.17;1.30;;;;;;;;;;3585441;40;20390;-71
2021/07/04 10:27:35;;;;;;;2.20;1.85;;;;;;;;;;3585422;40;20481;-70
2021/07/04 10:30:03;;;;;;;2.40;1.40;;;;;;;;;;3584173;40;20483;-71
2021/07/04 10:32:29;;;;;;;1.83;1.10;;;;;;;;;;3584720;40;20409;-70
2021/07/04 10:35:04;;;;;;;2.00;1.10;;;;;;;;;;3575318;40;20398;-71
2021/07/04 10:37:31;;;;;;;1.20;1.10;;;;;;;;;;3584918;40;20374;-71
2021/07/04 10:40:08;;;;;;;1.70;1.30;;;;;;;;;;3585163;40;20860;-70
2021/07/04 10:42:35;;;;;;;2.05;1.20;;;;;;;;;;3585165;40;20389;-71
2021/07/04 10:45:03;;;;;;;1.27;0.98;;;;;;;;;;3585144;40;20387;-70
2021/07/04 10:47:33;;;;;;;1.98;1.20;;;;;;;;;;3584754;40;20755;-71
2021/07/04 10:50:08;;;;;;;1.93;1.20;;;;;;;;;;3585055;40;20390;-70
2021/07/04 10:52:40;;;;;;;4.27;2.20;;;;;;;;;;3585042;40;20387;-70
2021/07/04 10:55:07;;;;;;;2.03;1.50;;;;;;;;;;3584742;40;20390;-70
2021/07/04 10:57:34;;;;;;;3.87;2.10;;;;;;;;;;3575467;40;20718;-70
2021/07/04 11:00:36;;;;;;;2.47;2.07;;;21.60;90.50;;;;;;3575644;40;20386;-71
2021/07/04 11:03:04;;;;;;;4.20;2.13;;;;;;;;;;3585556;40;20381;-71
2021/07/04 11:05:47;;;;;;;2.95;1.80;;;;;;;;;;3585210;40;20508;-71
2021/07/04 11:08:13;;;;;;;2.60;2.40;;;;;;;;;;3585434;40;20390;-71
2021/07/04 11:10:49;;;;;;;3.15;2.50;;;;;;;;;;3585085;40;20386;-71
2021/07/04 11:13:32;;;;;;;3.42;2.72;;;;;;;;;;3584939;40;20479;-70
2021/07/04 11:16:11;;;;;;;2.83;2.63;;;24.10;93.60;;;;;;3574375;40;20487;-70
2021/07/04 11:18:42;;;;;;;2.75;2.50;;;24.10;94.70;;;;;;3584592;40;20977;-70
2021/07/04 11:21:09;;;;;;;3.38;2.55;;;24.10;94.80;;;;;;3575385;40;20401;-71
2021/07/04 11:23:35;;;;;;;3.38;2.78;;;24.10;94.30;;;;;;3568009;40;20450;-71
2021/07/04 11:26:11;;;;;;;3.13;2.83;;;23.90;94.40;;;;;;3584992;40;20525;-71
2021/07/04 11:28:42;;;;;;;3.55;2.22;;;23.90;94.10;;;;;;3576312;40;20389;-70
2021/07/04 11:31:30;;;;;;;2.97;2.72;;;24.10;94.50;;;;;;3583738;40;20799;-71
2021/07/04 11:34:01;;;;;;;3.60;2.50;;;24.10;95.50;;;;;;3584134;40;20405;-71
2021/07/04 11:36:28;;;;;;;2.67;2.45;;;;;;;;;;3584064;40;20405;-71
2021/07/04 11:38:55;;;;;;;4.25;2.95;;;;;;;;;;3584892;40;20435;-71
2021/07/04 11:41:22;;;;;;;3.40;2.70;;;;;;;;;;3584462;40;20405;-71
2021/07/04 11:43:49;;;;;;;5.60;2.97;;;;;;;;;;3575640;40;20583;-72
2021/07/04 11:46:16;;;;;;;3.85;2.97;;;;;;;;;;3585422;40;20794;-71
2021/07/04 11:48:46;;;;;;;4.70;3.00;;;;;;;;;;3579074;40;20637;-72
2021/07/04 11:51:12;;;;;;;4.38;3.55;;;;;;;;;;3575220;40;20412;-71
2021/07/04 11:53:46;;;;;;;4.70;3.47;;;;;;;;;;3585123;40;20479;-71
2021/07/04 11:56:13;;;;;;;3.50;3.20;;;;;;;;;;3585084;40;20666;-69
2021/07/04 11:58:39;;;;;;;5.18;3.50;;;;;;;;;;3585197;40;20386;-70
2021/07/04 12:01:14;;;;;;;3.72;3.30;;;;;;;;;;3585054;40;20471;-70
2021/07/04 12:03:40;;;;;;;4.70;3.22;;;;;;;;;;3584465;40;20403;-70
2021/07/04 12:06:08;;;;;;;6.20;3.88;;;;;;;;;;3585008;40;20451;-70
2021/07/04 12:08:54;;;;;;;4.53;4.10;;;;;;;;;;3584666;40;20402;-70
2021/07/04 12:11:38;;;;;;;5.22;3.88;;;;;;;;;;3575775;40;20429;-70
2021/07/04 12:14:20;;;;;;;4.88;4.35;;;;;;;;;;3584174;40;20398;-70
2021/07/04 12:16:46;;;;;;;5.53;4.32;;;;;;;;;;3575468;40;20659;-70
2021/07/04 12:19:24;;;;;;;5.93;4.13;;;;;;;;;;3583512;40;20412;-70
2021/07/04 12:21:51;;;;;;;4.78;4.30;;;24.50;95.00;;;;;;3583770;40;20685;-70
2021/07/04 12:24:17;;;;;;;4.90;4.40;;;;;;;;;;3576049;40;20422;-70
2021/07/04 12:26:45;;;;;;;5.70;4.32;;;26.50;93.30;;;;;;3576520;40;20771;-70
2021/07/04 12:29:11;;;;;;;4.97;4.13;;;;;;;;;;3576010;40;20413;-70
2021/07/04 12:31:37;;;;;;;5.32;4.38;;;26.00;94.10;;;;;;3576589;40;20394;-70
2021/07/04 12:34:03;;;;;;;5.80;5.03;;;;;;;;;;3576961;40;20422;-70
2021/07/04 12:36:33;;;;;;;5.53;4.97;;;;;;;;;;3585047;40;20413;-73
2021/07/04 12:39:07;;;;;;;5.60;4.10;;;;;;;;;;3576128;40;20406;-69
2021/07/04 12:41:34;;;;;;;5.63;4.82;;;;;;;;;;3586128;40;20659;-70
2021/07/04 12:44:11;;;;;;;3.97;3.42;;;;;;;;;;3586028;40;20394;-69
2021/07/04 12:46:37;;;;;;;4.18;3.10;;;;;;;;;;3585667;40;20374;-70
2021/07/04 12:49:04;;;;;;;2.97;2.58;;;;;;;;;;3585647;40;20386;-70
2021/07/04 12:51:33;;;;;;;4.60;3.13;;;;;;;;;;3585719;40;20382;-69
2021/07/04 12:54:00;;;;;;;4.55;3.42;;;;;;;;;;3575218;40;20470;-69
2021/07/04 12:56:28;;;;;;;5.63;3.83;;;;;;;;;;3586284;40;20390;-70
2021/07/04 12:58:55;;;;;;;5.53;4.30;;;;;;;;;;3585054;40;20370;-70
2021/07/04 13:01:22;;;;;;;4.82;4.40;;;;;;;;;;3576359;40;20390;-69
2021/07/04 13:03:50;;;;;;;6.03;4.30;;;25.50;94.60;;;;;;3585384;40;20401;-69
2021/07/04 13:06:45;;;;;;;4.03;3.55;;;24.00;98.40;;;;;;3585956;40;20429;-69
2021/07/04 13:09:19;;;;;;;5.25;4.70;;;24.10;98.50;;;;;;3585613;40;20387;-69
2021/07/04 13:11:59;;;;;;;6.07;5.35;;;24.10;99.00;;;;;;3575451;40;20369;-69
2021/07/04 13:14:33;;;;;;;7.22;6.63;;;23.90;99.90;;;;;;3586295;40;20628;-70
2021/07/04 13:16:59;;;;;;;8.75;7.78;;;23.80;99.90;;;;;;3586018;40;20389;-70
2021/07/04 13:19:27;;;;;;;8.30;6.63;;;;;;;;;;3575512;40;20411;-69
2021/07/04 13:21:54;;;;;;;7.03;6.32;;;;;;;;;;3575368;40;20411;-66
2021/07/04 13:24:23;;;;;;;6.85;4.85;;;;;;;;;;3575900;40;20437;-68
2021/07/04 13:26:50;;;;;;;4.35;3.83;;;;;;;;;;3586769;40;20783;-68
2021/07/04 13:29:17;;;;;;;6.43;3.10;;;;;;;;;;3585997;40;20475;-69
2021/07/04 13:31:44;;;;;;;4.25;3.38;;;;;;;;;;3584793;40;20505;-68
2021/07/04 13:34:20;;;;;;;4.23;2.93;;;;;;;;;;3574893;40;20404;-68
2021/07/04 13:36:53;;;;;;;3.70;3.10;;;;;;;;;;3581376;40;20402;-68
2021/07/04 13:39:19;;;;;;;5.20;3.42;;;;;;;;;;3575375;40;20396;-69
2021/07/04 13:41:46;;;;;;;3.33;2.88;;;;;;;;;;3575505;40;20493;-69
2021/07/04 13:44:13;;;;;;;5.60;4.32;;;;;;;;;;3584846;40;20463;-69
2021/07/04 13:46:39;;;;;;;5.00;4.50;;;;;;;;;;3574852;40;20406;-69
2021/07/04 13:49:05;;;;;;;5.22;4.72;;;;;;;;;;3584874;40;20402;-69
2021/07/04 13:51:31;;;;;;;6.00;5.50;;;;;;;;;;3585449;40;20385;-70
2021/07/04 13:53:58;;;;;;;6.47;5.82;;;;;;;;;;3586320;40;20473;-69
2021/07/04 13:56:24;;;;;;;5.87;5.33;;;;;;;;;;3575769;40;20412;-69
2021/07/04 13:58:51;;;;;;;5.60;5.10;;;;;;;;;;3585548;40;20484;-69
2021/07/04 14:01:18;;;;;;;5.13;4.57;;;;;;;;;;3575255;40;20511;-69
2021/07/04 14:03:44;;;;;;;8.27;7.47;;;;;;;;;;3574562;40;20412;-69
2021/07/04 14:06:10;;;;;;;6.80;6.07;;;;;;;;;;3583680;40;20791;-69
2021/07/04 14:08:36;;;;;;;5.97;5.47;;;;;;;;;;3576617;40;20401;-69
2021/07/04 14:11:03;;;;;;;5.90;5.30;;;;;;;;;;3585360;40;20479;-69
2021/07/04 14:13:29;;;;;;;6.25;5.65;;;;;;;;;;3585943;40;20398;-69
2021/07/04 14:15:56;;;;;;;4.82;4.43;;;;;;;;;;3585756;40;20397;-69
2021/07/04 14:18:23;;;;;;;4.80;4.32;;;;;;;;;;3574573;40;20407;-70
2021/07/04 14:20:49;;;;;;;4.85;4.38;;;;;;;;;;3574748;40;20853;-69
2021/07/04 14:23:15;;;;;;;6.32;5.72;;;;;;;;;;3584303;40;20382;-69
2021/07/04 14:25:41;;;;;;;5.07;4.55;;;;;;;;;;3575228;40;20391;-71
2021/07/04 14:28:08;;;;;;;4.13;3.70;;;;;;;;;;3591564;40;20384;-71
2021/07/04 14:30:35;;;;;;;3.70;3.30;;;;;;;;;;3579708;40;20392;-71
2021/07/04 14:33:03;;;;;;;4.30;3.17;;;;;;;;;;3593627;40;20380;-70
2021/07/04 14:35:29;;;;;;;3.90;3.60;;;;;;;;;;3583250;40;20412;-71
2021/07/04 14:37:56;;;;;;;3.53;3.23;;;;;;;;;;3578217;40;20527;-71